Tristen — WDJ8628 — position and weather

sailwx.info

Track history (hours):
 
Tides and Currents Weather Stations Pressure Air Temp Water Temp Dewpoint Dewpoint Depression Visibility Wind Speed Wind Dir Waves Ship Positions

Tristen

Owner: LA Carriers, LLC, Larose, LA. More information available from US FCC via Universal Licensing System and Coast Guard Vessel Documentation Center.

Last reported at 2018-Feb-14 23:27 UTC. Time now 2018-Feb-18 19:40 UTC.
Position N 27°47' W 082°30'.

Length 24 m; draft 3 m.

Type: Towing. MMSI: 368018310.

Date/timePositionNaut miles runAvg speedWind from/ knotsBaromVisibWave heightAir tempDewpointWater temp
2018-Feb-14 23:27N 27°47' W 082°30'3 6.0
2018-Feb-14 22:55N 27°49' W 082°27'2 5.1
2018-Feb-14 22:27N 27°51' W 082°27'2 5.4
2018-Feb-14 22:00N 27°54' W 082°26'1 1.6
2018-Feb-14 21:30N 27°54' W 082°26'0 0.1
2018-Feb-14 21:01N 27°54' W 082°26'0 0.2
2018-Feb-14 20:30N 27°54' W 082°26'0 0.0
2018-Feb-14 20:00N 27°54' W 082°26'0 0.0
2018-Feb-14 19:31N 27°54' W 082°26'0 0.0
2018-Feb-14 19:00N 27°54' W 082°26'0 0.0
2018-Feb-14 18:31N 27°54' W 082°26'0 0.0
2018-Feb-14 18:01N 27°54' W 082°26'0 0.0
2018-Feb-14 17:31N 27°54' W 082°26'0 0.0
2018-Feb-14 17:01N 27°54' W 082°26'0 0.0
2018-Feb-14 16:31N 27°54' W 082°26'0 0.0
2018-Feb-14 16:01N 27°54' W 082°26'0 0.0
2018-Feb-14 15:30N 27°54' W 082°26'0 0.1
2018-Feb-14 15:00N 27°54' W 082°26'0 0.1
2018-Feb-14 14:30N 27°54' W 082°26'0 0.0
2018-Feb-14 14:00N 27°54' W 082°26'0 0.0
2018-Feb-14 13:31N 27°54' W 082°26'0 0.0
2018-Feb-14 12:59N 27°54' W 082°26'0 0.0
2018-Feb-14 12:31N 27°54' W 082°26'0 0.0
2018-Feb-14 12:00N 27°54' W 082°26'0 0.0
2018-Feb-14 11:30N 27°54' W 082°26'0 0.1
2018-Feb-14 11:00N 27°54' W 082°26'0 0.7
2018-Feb-14 10:31N 27°54' W 082°25'0 0.7
2018-Feb-14 10:01N 27°54' W 082°26'0 0.0
2018-Feb-14 09:31N 27°54' W 082°26'0 0.0
2018-Feb-14 09:01N 27°54' W 082°26'0 0.0
2018-Feb-14 08:31N 27°54' W 082°26'0 0.0
2018-Feb-14 08:01N 27°54' W 082°26'0 0.0
2018-Feb-14 07:30N 27°54' W 082°26'0 0.0
2018-Feb-14 07:00N 27°54' W 082°26'0 0.0
2018-Feb-14 06:30N 27°54' W 082°26'0 0.0
2018-Feb-14 06:01N 27°54' W 082°26'0 0.0
2018-Feb-14 05:30N 27°54' W 082°26'0 0.0
2018-Feb-14 05:01N 27°54' W 082°26'0 0.0
2018-Feb-14 04:30N 27°54' W 082°26'0 0.0
2018-Feb-14 04:00N 27°54' W 082°26'0 0.0
2018-Feb-14 03:30N 27°54' W 082°26'0 0.0
2018-Feb-14 03:00N 27°54' W 082°26'0 0.0
2018-Feb-14 02:30N 27°54' W 082°26'0 0.0
2018-Feb-14 02:00N 27°54' W 082°26'0 0.0
2018-Feb-14 01:31N 27°54' W 082°26'0 0.0
2018-Feb-14 01:00N 27°54' W 082°26'0 0.0
2018-Feb-14 00:30N 27°54' W 082°26'0 0.8
2018-Feb-14 00:00N 27°54' W 082°25'0 0.3
2018-Feb-13 23:30N 27°54' W 082°25'0 0.5
2018-Feb-13 23:00N 27°54' W 082°25'1 1.8
2018-Feb-13 22:30N 27°54' W 082°26'3 6.3
2018-Feb-13 22:00N 27°51' W 082°27'3 5.2
2018-Feb-13 21:30N 27°48' W 082°25'1 1.4
2018-Feb-13 21:00N 27°48' W 082°25'0 0.4
2018-Feb-13 20:30N 27°48' W 082°25'3 6.4
2018-Feb-13 19:59N 27°51' W 082°27'3 6.6
2018-Feb-13 19:30N 27°54' W 082°26'0 0.1
2018-Feb-13 19:00N 27°54' W 082°26'0 0.1
2018-Feb-13 18:30N 27°54' W 082°26'0 0.0
2018-Feb-13 18:00N 27°54' W 082°26'0 0.0
2018-Feb-13 17:30N 27°54' W 082°26'0 0.0
2018-Feb-13 17:00N 27°54' W 082°26'0 0.0
2018-Feb-13 16:30N 27°54' W 082°26'0 0.0
2018-Feb-13 16:00N 27°54' W 082°26'0 0.0
2018-Feb-13 15:30N 27°54' W 082°26'0 0.0
2018-Feb-13 15:00N 27°54' W 082°26'0 0.0
2018-Feb-13 14:30N 27°54' W 082°26'0 0.1
2018-Feb-13 14:00N 27°54' W 082°26'1 1.1
2018-Feb-13 13:30N 27°54' W 082°25'2 3.1
2018-Feb-13 13:00N 27°53' W 082°26'4 8.4
2018-Feb-13 12:30N 27°49' W 082°27'2 4.4
2018-Feb-13 12:01N 27°48' W 082°24'0 0.0
2018-Feb-13 11:30N 27°48' W 082°24'0 0.0
2018-Feb-13 11:00N 27°48' W 082°24'0 0.0
2018-Feb-13 10:30N 27°48' W 082°24'0 0.0
2018-Feb-13 10:00N 27°48' W 082°24'0 0.1
2018-Feb-13 09:30N 27°48' W 082°25'0 0.1
2018-Feb-13 09:00N 27°48' W 082°24'0 0.1
2018-Feb-13 08:30N 27°48' W 082°24'0 0.0
2018-Feb-13 08:00N 27°48' W 082°24'0 0.0
2018-Feb-13 07:30N 27°48' W 082°24'0 0.0
2018-Feb-13 07:00N 27°48' W 082°24'0 0.0
2018-Feb-13 06:31N 27°48' W 082°24'0 0.0
2018-Feb-13 06:00N 27°48' W 082°24'0 0.0
2018-Feb-13 05:30N 27°48' W 082°24'0 0.0
2018-Feb-13 05:00N 27°48' W 082°24'0 0.0
2018-Feb-13 04:30N 27°48' W 082°24'0 0.0
2018-Feb-13 04:00N 27°48' W 082°24'0 0.0
2018-Feb-13 03:31N 27°48' W 082°24'0 0.0
2018-Feb-13 03:00N 27°48' W 082°24'0 0.0
2018-Feb-13 02:30N 27°48' W 082°24'0 0.0
2018-Feb-13 02:00N 27°48' W 082°24'0 0.0
2018-Feb-13 01:30N 27°48' W 082°24'0 0.0
2018-Feb-13 01:00N 27°48' W 082°24'0 0.0
2018-Feb-13 00:30N 27°48' W 082°24'0 0.0
2018-Feb-13 00:00N 27°48' W 082°24'0 0.0
2018-Feb-12 23:30N 27°48' W 082°24'0 0.0
2018-Feb-12 23:00N 27°48' W 082°24'0 0.0
2018-Feb-12 22:30N 27°48' W 082°24'0 0.0
2018-Feb-12 22:00N 27°48' W 082°24'0 0.0
2018-Feb-12 21:30N 27°48' W 082°24'0 0.0
2018-Feb-12 21:00N 27°48' W 082°24'0 0.0
2018-Feb-12 20:30N 27°48' W 082°24'0 0.0
2018-Feb-12 20:00N 27°48' W 082°24'0 0.0
2018-Feb-12 19:30N 27°48' W 082°24'0 0.0
2018-Feb-12 19:01N 27°48' W 082°24'0 0.0
2018-Feb-12 18:30N 27°48' W 082°24'0 0.0
2018-Feb-12 18:00N 27°48' W 082°24'0 0.0
2018-Feb-12 17:30N 27°48' W 082°24'0 0.0
2018-Feb-12 17:00N 27°48' W 082°24'0 0.0
2018-Feb-12 16:29N 27°48' W 082°25'1 3.0
2018-Feb-12 16:00N 27°49' W 082°26'3 6.1
2018-Feb-12 15:29N 27°48' W 082°30'  
2018-Feb-06 13:36N 25°36' W 080°07'2 7.3
2018-Feb-06 13:18N 25°38' W 080°07'2 7.4
2018-Feb-06 12:59N 25°40' W 080°07'3 7.3
2018-Feb-06 12:30N 25°44' W 080°06'7 7.2
2018-Feb-06 11:30N 25°51' W 080°03'3 6.5
2018-Feb-06 11:00N 25°54' W 080°02'3 6.1
2018-Feb-06 10:30N 25°57' W 080°02'3 5.8
2018-Feb-06 10:00N 25°60' W 080°01'6 5.6
2018-Feb-06 09:00N 26°05' W 079°60'3 5.8
2018-Feb-06 08:30N 26°08' W 080°00'3 6.5
2018-Feb-06 08:00N 26°11' W 079°60'3 6.0
2018-Feb-06 07:30N 26°14' W 079°60'3 5.7
2018-Feb-06 07:00N 26°17' W 079°59'3 6.0
2018-Feb-06 06:30N 26°20' W 079°59'3 6.1
2018-Feb-06 06:00N 26°23' W 079°59'3 5.5
2018-Feb-06 05:30N 26°26' W 079°59'3 5.4
2018-Feb-06 05:00N 26°29' W 079°59'3 5.3
2018-Feb-06 04:29N 26°31' W 079°58'2 5.0
2018-Feb-06 03:59N 26°34' W 079°58'2 5.0
2018-Feb-06 03:30N 26°36' W 079°58'3 5.0
2018-Feb-06 02:57N 26°39' W 079°57'16 5.2
2018-Feb-05 23:53N 26°54' W 080°01'2 6.3
2018-Feb-05 23:30N 26°57' W 080°02'  
Track history (hours):
 
Tides and Currents Weather Stations Pressure Air Temp Water Temp Dewpoint Dewpoint Depression Visibility Wind Speed Wind Dir Waves Ship Positions

Tristen

Owner: LA Carriers, LLC, Larose, LA. More information available from US FCC via Universal Licensing System and Coast Guard Vessel Documentation Center.

Last reported at 2018-Feb-14 23:27 UTC. Time now 2018-Feb-18 19:40 UTC.
Position N 27°47' W 082°30'.

Length 24 m; draft 3 m.

Type: Towing. MMSI: 368018310.

Date/timePositionNaut miles runAvg speedWind from/ knotsBaromVisibWave heightAir tempDewpointWater temp
2018-Feb-14 23:27N 27°47' W 082°30'3 6.0
2018-Feb-14 22:55N 27°49' W 082°27'2 5.1
2018-Feb-14 22:27N 27°51' W 082°27'2 5.4
2018-Feb-14 22:00N 27°54' W 082°26'1 1.6
2018-Feb-14 21:30N 27°54' W 082°26'0 0.1
2018-Feb-14 21:01N 27°54' W 082°26'0 0.2
2018-Feb-14 20:30N 27°54' W 082°26'0 0.0
2018-Feb-14 20:00N 27°54' W 082°26'0 0.0
2018-Feb-14 19:31N 27°54' W 082°26'0 0.0
2018-Feb-14 19:00N 27°54' W 082°26'0 0.0
2018-Feb-14 18:31N 27°54' W 082°26'0 0.0
2018-Feb-14 18:01N 27°54' W 082°26'0 0.0
2018-Feb-14 17:31N 27°54' W 082°26'0 0.0
2018-Feb-14 17:01N 27°54' W 082°26'0 0.0
2018-Feb-14 16:31N 27°54' W 082°26'0 0.0
2018-Feb-14 16:01N 27°54' W 082°26'0 0.0
2018-Feb-14 15:30N 27°54' W 082°26'0 0.1
2018-Feb-14 15:00N 27°54' W 082°26'0 0.1
2018-Feb-14 14:30N 27°54' W 082°26'0 0.0
2018-Feb-14 14:00N 27°54' W 082°26'0 0.0
2018-Feb-14 13:31N 27°54' W 082°26'0 0.0
2018-Feb-14 12:59N 27°54' W 082°26'0 0.0
2018-Feb-14 12:31N 27°54' W 082°26'0 0.0
2018-Feb-14 12:00N 27°54' W 082°26'0 0.0
2018-Feb-14 11:30N 27°54' W 082°26'0 0.1
2018-Feb-14 11:00N 27°54' W 082°26'0 0.7
2018-Feb-14 10:31N 27°54' W 082°25'0 0.7
2018-Feb-14 10:01N 27°54' W 082°26'0 0.0
2018-Feb-14 09:31N 27°54' W 082°26'0 0.0
2018-Feb-14 09:01N 27°54' W 082°26'0 0.0
2018-Feb-14 08:31N 27°54' W 082°26'0 0.0
2018-Feb-14 08:01N 27°54' W 082°26'0 0.0
2018-Feb-14 07:30N 27°54' W 082°26'0 0.0
2018-Feb-14 07:00N 27°54' W 082°26'0 0.0
2018-Feb-14 06:30N 27°54' W 082°26'0 0.0
2018-Feb-14 06:01N 27°54' W 082°26'0 0.0
2018-Feb-14 05:30N 27°54' W 082°26'0 0.0
2018-Feb-14 05:01N 27°54' W 082°26'0 0.0
2018-Feb-14 04:30N 27°54' W 082°26'0 0.0
2018-Feb-14 04:00N 27°54' W 082°26'0 0.0
2018-Feb-14 03:30N 27°54' W 082°26'0 0.0
2018-Feb-14 03:00N 27°54' W 082°26'0 0.0
2018-Feb-14 02:30N 27°54' W 082°26'0 0.0
2018-Feb-14 02:00N 27°54' W 082°26'0 0.0
2018-Feb-14 01:31N 27°54' W 082°26'0 0.0
2018-Feb-14 01:00N 27°54' W 082°26'0 0.0
2018-Feb-14 00:30N 27°54' W 082°26'0 0.8
2018-Feb-14 00:00N 27°54' W 082°25'0 0.3
2018-Feb-13 23:30N 27°54' W 082°25'0 0.5
2018-Feb-13 23:00N 27°54' W 082°25'1 1.8
2018-Feb-13 22:30N 27°54' W 082°26'3 6.3
2018-Feb-13 22:00N 27°51' W 082°27'3 5.2
2018-Feb-13 21:30N 27°48' W 082°25'1 1.4
2018-Feb-13 21:00N 27°48' W 082°25'0 0.4
2018-Feb-13 20:30N 27°48' W 082°25'3 6.4
2018-Feb-13 19:59N 27°51' W 082°27'3 6.6
2018-Feb-13 19:30N 27°54' W 082°26'0 0.1
2018-Feb-13 19:00N 27°54' W 082°26'0 0.1
2018-Feb-13 18:30N 27°54' W 082°26'0 0.0
2018-Feb-13 18:00N 27°54' W 082°26'0 0.0
2018-Feb-13 17:30N 27°54' W 082°26'0 0.0
2018-Feb-13 17:00N 27°54' W 082°26'0 0.0
2018-Feb-13 16:30N 27°54' W 082°26'0 0.0
2018-Feb-13 16:00N 27°54' W 082°26'0 0.0
2018-Feb-13 15:30N 27°54' W 082°26'0 0.0
2018-Feb-13 15:00N 27°54' W 082°26'0 0.0
2018-Feb-13 14:30N 27°54' W 082°26'0 0.1
2018-Feb-13 14:00N 27°54' W 082°26'1 1.1
2018-Feb-13 13:30N 27°54' W 082°25'2 3.1
2018-Feb-13 13:00N 27°53' W 082°26'4 8.4
2018-Feb-13 12:30N 27°49' W 082°27'2 4.4
2018-Feb-13 12:01N 27°48' W 082°24'0 0.0
2018-Feb-13 11:30N 27°48' W 082°24'0 0.0
2018-Feb-13 11:00N 27°48' W 082°24'0 0.0
2018-Feb-13 10:30N 27°48' W 082°24'0 0.0
2018-Feb-13 10:00N 27°48' W 082°24'0 0.1
2018-Feb-13 09:30N 27°48' W 082°25'0 0.1
2018-Feb-13 09:00N 27°48' W 082°24'0 0.1
2018-Feb-13 08:30N 27°48' W 082°24'0 0.0
2018-Feb-13 08:00N 27°48' W 082°24'0 0.0
2018-Feb-13 07:30N 27°48' W 082°24'0 0.0
2018-Feb-13 07:00N 27°48' W 082°24'0 0.0
2018-Feb-13 06:31N 27°48' W 082°24'0 0.0
2018-Feb-13 06:00N 27°48' W 082°24'0 0.0
2018-Feb-13 05:30N 27°48' W 082°24'0 0.0
2018-Feb-13 05:00N 27°48' W 082°24'0 0.0
2018-Feb-13 04:30N 27°48' W 082°24'0 0.0
2018-Feb-13 04:00N 27°48' W 082°24'0 0.0
2018-Feb-13 03:31N 27°48' W 082°24'0 0.0
2018-Feb-13 03:00N 27°48' W 082°24'0 0.0
2018-Feb-13 02:30N 27°48' W 082°24'0 0.0
2018-Feb-13 02:00N 27°48' W 082°24'0 0.0
2018-Feb-13 01:30N 27°48' W 082°24'0 0.0
2018-Feb-13 01:00N 27°48' W 082°24'0 0.0
2018-Feb-13 00:30N 27°48' W 082°24'0 0.0
2018-Feb-13 00:00N 27°48' W 082°24'0 0.0
2018-Feb-12 23:30N 27°48' W 082°24'0 0.0
2018-Feb-12 23:00N 27°48' W 082°24'0 0.0
2018-Feb-12 22:30N 27°48' W 082°24'0 0.0
2018-Feb-12 22:00N 27°48' W 082°24'0 0.0
2018-Feb-12 21:30N 27°48' W 082°24'0 0.0
2018-Feb-12 21:00N 27°48' W 082°24'0 0.0
2018-Feb-12 20:30N 27°48' W 082°24'0 0.0
2018-Feb-12 20:00N 27°48' W 082°24'0 0.0
2018-Feb-12 19:30N 27°48' W 082°24'0 0.0
2018-Feb-12 19:01N 27°48' W 082°24'0 0.0
2018-Feb-12 18:30N 27°48' W 082°24'0 0.0
2018-Feb-12 18:00N 27°48' W 082°24'0 0.0
2018-Feb-12 17:30N 27°48' W 082°24'0 0.0
2018-Feb-12 17:00N 27°48' W 082°24'0 0.0
2018-Feb-12 16:29N 27°48' W 082°25'1 3.0
2018-Feb-12 16:00N 27°49' W 082°26'3 6.1
2018-Feb-12 15:29N 27°48' W 082°30'  
2018-Feb-06 13:36N 25°36' W 080°07'2 7.3
2018-Feb-06 13:18N 25°38' W 080°07'2 7.4
2018-Feb-06 12:59N 25°40' W 080°07'3 7.3
2018-Feb-06 12:30N 25°44' W 080°06'7 7.2
2018-Feb-06 11:30N 25°51' W 080°03'3 6.5
2018-Feb-06 11:00N 25°54' W 080°02'3 6.1
2018-Feb-06 10:30N 25°57' W 080°02'3 5.8
2018-Feb-06 10:00N 25°60' W 080°01'6 5.6
2018-Feb-06 09:00N 26°05' W 079°60'3 5.8
2018-Feb-06 08:30N 26°08' W 080°00'3 6.5
2018-Feb-06 08:00N 26°11' W 079°60'3 6.0
2018-Feb-06 07:30N 26°14' W 079°60'3 5.7
2018-Feb-06 07:00N 26°17' W 079°59'3 6.0
2018-Feb-06 06:30N 26°20' W 079°59'3 6.1
2018-Feb-06 06:00N 26°23' W 079°59'3 5.5
2018-Feb-06 05:30N 26°26' W 079°59'3 5.4
2018-Feb-06 05:00N 26°29' W 079°59'3 5.3
2018-Feb-06 04:29N 26°31' W 079°58'2 5.0
2018-Feb-06 03:59N 26°34' W 079°58'2 5.0
2018-Feb-06 03:30N 26°36' W 079°58'3 5.0
2018-Feb-06 02:57N 26°39' W 079°57'16 5.2
2018-Feb-05 23:53N 26°54' W 080°01'2 6.3
2018-Feb-05 23:30N 26°57' W 080°02'  

Dump ship's entire track history